Lachute Airport

CSE4 · Quebec, 加拿大

罗盘
风向 的 风向 的 风向 到 风向 340° Lachute Airport 10/28
风: 3 kt, 1 beaufort

1 kt

3 kt
改变
0 ft 2.000 4.000 6.000 8.000 10.000
Cloud Cloud Cloud Cloud Cloud Cloud
BKN 5.800
METAR CYMX 011200Z 34003KT 320V060 25SM BKN058 M25/M28 A3024 RMK SC5 SLP250

METAR Lachute Airport - CSE4

Lachute Airport是,加拿大中的小机场。 该机场有一条跑道: 10/28. 该领域的国际民航组织标志是CSE4.

这份报告是针对2023年2月1日 07:00, 当地时间在Montreal International (Mirabel) Airport进行的。

机场观察

风向为340°,速度为3 kt。 风向在320°和060°之间变化。

可见度为25 mi。

有碎云在5.800 ft的高度。 破损或更高的上限为5.800 ft。

温度为-25 °C,阵风为-34 °C。 露点为-28 °C,相对湿度为76%。 海平面上的气压为30,24 inHg (QNH)。

白天

今天,太阳从07:18升起,在17:03降落。 这适用于Lachute Airport,世界夏令时可能有所不同。 当地时间与世界标准时间之间的时差为-5 小时。 当前,没有夏令时有效。

公司介绍

在这个机场,你可以找到飞行学校。 本场上唯一已知的公司是Lachute Aviation。

体会

到Vliegles.nl去找飞行课程,跳伞和其他飞行体验。 浏览页面,了解Lachute Airport附近所有可用的活动。 你也可以使用搜索功能来寻找你所在地附近的特定飞行课程、跳伞或其他飞行体验。

跑道

Id 标题 侧风 逆风 侧风 %
10/28 098°-278° 3 kt 1 kt 88 %

逆风成分最大的方向会被突出显示,并用于横风计算。 这并不一定意味着这个方向在使用。

乌云

5.800 ft BKN 碎云

温度 & 天气

温度 -25 °C
露点 -28 °C
相对湿度 76%
风寒 -34 °C
Kp-index 0 (0-9)

评论

SLP250海平面压力为30,27 inHg (30,27 inHg)
SC5

白天

日出
07:17
中午
12:09
日落
17:01 (9:16)

小工具

你想在你的网站上有一个关于Lachute Airport的当前航空天气(METAR)的小部件吗?

显示HTML代码

我们和第三方通过cookies跟踪您在我们网站上的互联网行为。如果你继续,我们认为你同意我们的饼干政策